createdAt,value
2023-09-02T00:01:44.178Z,14.30
2023-09-02T00:05:46.223Z,14.55
2023-09-02T00:09:48.048Z,14.40
2023-09-02T00:13:50.164Z,14.39
2023-09-02T00:17:52.299Z,14.25
2023-09-02T00:21:55.001Z,14.25
2023-09-02T00:25:57.328Z,14.32
2023-09-02T00:29:59.129Z,14.41
2023-09-02T00:34:01.289Z,14.57
2023-09-02T00:38:03.595Z,14.65
2023-09-02T00:42:08.044Z,14.69
2023-09-02T00:46:10.751Z,14.59
2023-09-02T00:50:12.964Z,14.49
2023-09-02T00:54:14.653Z,14.52
2023-09-02T00:58:16.807Z,14.45
2023-09-02T01:02:19.834Z,14.49
2023-09-02T01:06:22.471Z,14.57
2023-09-02T01:10:25.153Z,14.46
2023-09-02T01:14:27.406Z,14.56
2023-09-02T01:18:29.711Z,14.44
2023-09-02T01:23:04.291Z,14.35
2023-09-02T01:27:24.284Z,14.42
2023-09-02T01:31:26.334Z,14.46
2023-09-02T01:35:30.950Z,14.38
2023-09-02T01:39:34.221Z,14.35
2023-09-02T01:43:37.917Z,14.30
2023-09-02T01:47:40.203Z,14.30
2023-09-02T01:51:43.611Z,14.24
2023-09-02T01:55:47.978Z,14.30
2023-09-02T01:59:52.046Z,14.60
2023-09-02T02:04:15.869Z,14.34
2023-09-02T02:08:45.221Z,14.16
2023-09-02T02:12:47.181Z,14.11
2023-09-02T02:16:49.323Z,14.06
2023-09-02T02:21:03.906Z,13.90
2023-09-02T02:25:06.733Z,13.77
2023-09-02T02:29:09.086Z,13.61
2023-09-02T02:33:11.166Z,13.51
2023-09-02T02:37:13.364Z,13.68
2023-09-02T02:41:15.425Z,13.53
2023-09-02T02:45:17.454Z,13.76
2023-09-02T02:49:19.546Z,13.52
2023-09-02T02:53:21.587Z,13.83
2023-09-02T02:57:23.379Z,13.51
2023-09-02T03:01:25.587Z,13.48
2023-09-02T03:05:27.723Z,13.30
2023-09-02T03:09:29.517Z,13.28
2023-09-02T03:13:34.813Z,13.27
2023-09-02T03:17:41.652Z,13.01
2023-09-02T03:21:44.671Z,12.95
2023-09-02T03:25:46.775Z,13.58
2023-09-02T03:29:49.837Z,13.18
2023-09-02T03:33:53.850Z,12.87
2023-09-02T03:37:55.967Z,12.79
2023-09-02T03:41:57.844Z,12.66
2023-09-02T03:45:59.836Z,12.83
2023-09-02T03:50:03.358Z,12.95
2023-09-02T03:54:05.879Z,12.65
2023-09-02T03:58:08.761Z,12.45
2023-09-02T04:02:10.521Z,12.45
2023-09-02T04:06:12.662Z,12.59
2023-09-02T04:10:14.728Z,12.45
2023-09-02T04:14:17.059Z,12.44
2023-09-02T04:18:19.205Z,12.47
2023-09-02T04:22:22.450Z,12.47
2023-09-02T04:26:25.080Z,12.45
2023-09-02T04:30:27.267Z,12.96
2023-09-02T04:34:29.116Z,12.69
2023-09-02T04:38:32.107Z,12.71
2023-09-02T04:42:35.189Z,12.85
2023-09-02T04:46:38.398Z,13.31
2023-09-02T04:50:40.689Z,13.52
2023-09-02T04:54:45.490Z,13.35
2023-09-02T04:58:47.879Z,13.55
2023-09-02T05:02:53.103Z,13.59
2023-09-02T05:06:54.990Z,13.84
2023-09-02T05:10:57.162Z,13.96
2023-09-02T05:14:59.482Z,14.06
2023-09-02T05:19:02.899Z,14.16
2023-09-02T05:23:05.026Z,14.30
2023-09-02T05:27:07.831Z,14.44
2023-09-02T05:31:10.200Z,14.70
2023-09-02T05:35:12.345Z,14.80
2023-09-02T05:39:14.556Z,15.05
2023-09-02T05:43:18.252Z,15.04
2023-09-02T05:47:20.479Z,15.02
2023-09-02T05:51:22.479Z,15.36
2023-09-02T05:55:24.672Z,15.50
2023-09-02T05:59:26.711Z,15.56
2023-09-02T06:03:28.725Z,15.74
2023-09-02T06:07:30.942Z,15.86
2023-09-02T06:11:33.040Z,16.03
2023-09-02T06:15:35.183Z,16.22
2023-09-02T06:19:37.315Z,16.36
2023-09-02T06:23:42.974Z,16.54
2023-09-02T06:27:44.684Z,16.82
2023-09-02T06:31:46.906Z,17.01
2023-09-02T06:35:50.003Z,17.23
2023-09-02T06:39:54.799Z,17.36
2023-09-02T06:43:56.822Z,17.65
2023-09-02T06:47:58.956Z,17.81
2023-09-02T06:52:00.698Z,18.15
2023-09-02T06:56:06.333Z,18.29
2023-09-02T07:00:08.865Z,18.52
2023-09-02T07:04:10.922Z,18.66
2023-09-02T07:08:13.009Z,18.79
2023-09-02T07:12:16.599Z,18.81
2023-09-02T07:16:18.717Z,18.83
2023-09-02T07:20:20.566Z,19.22
2023-09-02T07:24:22.640Z,19.25
2023-09-02T07:28:24.698Z,19.35
2023-09-02T07:32:27.012Z,19.54
2023-09-02T07:36:29.116Z,19.71
2023-09-02T07:40:31.416Z,19.64
2023-09-02T07:44:33.381Z,19.86
2023-09-02T07:48:35.418Z,20.05
2023-09-02T07:52:37.481Z,20.17
2023-09-02T07:56:39.597Z,20.29
2023-09-02T08:00:42.112Z,20.22
2023-09-02T08:04:44.145Z,20.30
2023-09-02T08:08:46.239Z,20.46
2023-09-02T08:12:48.852Z,20.58
2023-09-02T08:16:50.982Z,20.64
2023-09-02T08:20:53.323Z,20.47
2023-09-02T08:24:56.666Z,20.52
2023-09-02T08:28:58.635Z,20.74
2023-09-02T08:33:00.791Z,20.79
2023-09-02T08:37:02.994Z,20.73
2023-09-02T08:41:06.443Z,20.97
2023-09-02T08:45:13.489Z,21.01
2023-09-02T08:49:16.536Z,21.01
2023-09-02T08:53:20.498Z,20.94
2023-09-02T08:57:23.301Z,21.22
2023-09-02T09:01:25.538Z,21.31
2023-09-02T09:05:27.880Z,21.28
2023-09-02T09:09:31.314Z,21.16
2023-09-02T09:13:37.373Z,21.34
2023-09-02T09:17:39.381Z,21.54
2023-09-02T09:21:41.596Z,21.62
2023-09-02T09:25:44.146Z,21.82
2023-09-02T09:29:46.807Z,21.86
2023-09-02T09:33:54.974Z,21.85
2023-09-02T09:37:57.537Z,21.86
2023-09-02T09:42:00.700Z,21.86
2023-09-02T09:46:04.290Z,21.33
2023-09-02T09:50:13.671Z,21.72
2023-09-02T09:54:15.760Z,21.92
2023-09-02T09:58:23.676Z,21.80
2023-09-02T10:02:26.032Z,21.65
2023-09-02T10:06:27.857Z,21.33
2023-09-02T10:10:32.341Z,21.55
2023-09-02T10:14:34.381Z,21.93
2023-09-02T10:18:36.255Z,22.40
2023-09-02T10:22:42.321Z,22.44
2023-09-02T10:26:54.158Z,22.66
2023-09-02T10:30:59.119Z,22.44
2023-09-02T10:35:18.472Z,22.75
2023-09-02T10:39:40.755Z,22.64
2023-09-02T10:43:45.001Z,22.63
2023-09-02T10:47:48.224Z,22.67
2023-09-02T10:51:51.641Z,22.61
2023-09-02T10:56:01.698Z,22.64
2023-09-02T11:00:13.544Z,22.76
2023-09-02T11:04:44.275Z,23.09
2023-09-02T11:08:54.162Z,22.83
2023-09-02T11:13:03.407Z,22.59
2023-09-02T11:17:31.139Z,22.20
2023-09-02T11:21:44.914Z,22.55
2023-09-02T11:25:46.592Z,22.93
2023-09-02T11:29:48.984Z,23.05
2023-09-02T11:33:50.807Z,23.08
2023-09-02T11:37:53.252Z,22.94
2023-09-02T11:42:14.881Z,23.11
2023-09-02T11:46:17.104Z,23.04
2023-09-02T11:50:21.406Z,22.40
2023-09-02T11:54:23.893Z,22.24
2023-09-02T11:58:26.009Z,21.92
2023-09-02T12:02:28.281Z,21.63
2023-09-02T12:06:31.292Z,21.71
2023-09-02T12:10:33.414Z,22.33
2023-09-02T12:14:38.193Z,22.71
2023-09-02T12:18:40.465Z,22.77
2023-09-02T12:22:45.378Z,22.43
2023-09-02T12:26:49.123Z,22.35
2023-09-02T12:30:51.265Z,22.88
2023-09-02T12:34:53.388Z,23.10
2023-09-02T12:38:55.375Z,23.08
2023-09-02T12:42:57.897Z,22.91
2023-09-02T12:47:00.247Z,22.71
2023-09-02T12:51:02.243Z,22.87
2023-09-02T12:55:07.981Z,22.97
2023-09-02T12:59:10.048Z,22.99
2023-09-02T13:03:12.918Z,23.08
2023-09-02T13:07:18.145Z,23.35
2023-09-02T13:11:19.952Z,23.31
2023-09-02T13:15:26.317Z,23.54
2023-09-02T13:19:30.576Z,23.66
2023-09-02T13:23:32.597Z,23.83
2023-09-02T13:27:34.844Z,24.10
2023-09-02T13:31:39.055Z,23.71
2023-09-02T13:35:41.378Z,23.79
2023-09-02T13:39:46.267Z,24.08
2023-09-02T13:43:48.292Z,24.09
2023-09-02T13:47:51.244Z,24.19
2023-09-02T13:51:53.439Z,24.11
2023-09-02T13:55:55.756Z,24.23
2023-09-02T13:59:58.283Z,24.09
2023-09-02T14:04:00.280Z,24.16
2023-09-02T14:08:06.493Z,24.10
2023-09-02T14:12:11.958Z,23.83
2023-09-02T14:16:14.092Z,23.74
2023-09-02T14:20:16.541Z,23.58
2023-09-02T14:24:18.337Z,23.53
2023-09-02T14:28:22.646Z,23.95
2023-09-02T14:32:24.955Z,24.01
2023-09-02T14:36:27.033Z,23.89
2023-09-02T14:40:29.076Z,23.67
2023-09-02T14:44:33.257Z,23.73
2023-09-02T14:48:35.488Z,23.50
2023-09-02T14:52:37.577Z,23.58
2023-09-02T14:56:44.574Z,23.51
2023-09-02T15:00:47.870Z,23.51
2023-09-02T15:04:50.578Z,23.45
2023-09-02T15:08:52.616Z,23.09
2023-09-02T15:12:56.276Z,22.98
2023-09-02T15:17:01.107Z,23.16
2023-09-02T15:21:04.773Z,23.18
2023-09-02T15:25:10.562Z,23.10
2023-09-02T15:29:14.344Z,24.33
2023-09-02T15:33:21.567Z,26.87
2023-09-02T15:37:25.185Z,28.37
2023-09-02T15:41:27.349Z,27.45
2023-09-02T15:45:29.660Z,27.73
2023-09-02T15:49:31.772Z,28.69
2023-09-02T15:53:33.851Z,28.81
2023-09-02T15:57:35.957Z,26.74
2023-09-02T16:01:37.766Z,25.38
2023-09-02T16:05:39.823Z,24.08
2023-09-02T16:09:41.989Z,23.31
2023-09-02T16:13:44.043Z,22.90
2023-09-02T16:17:46.109Z,22.39
2023-09-02T16:21:47.898Z,22.11
2023-09-02T16:25:49.948Z,21.75
2023-09-02T16:29:51.865Z,21.51
2023-09-02T16:33:53.670Z,21.25
2023-09-02T16:37:55.858Z,21.02
2023-09-02T16:42:01.802Z,20.84
2023-09-02T16:46:03.852Z,20.61
2023-09-02T16:50:07.927Z,20.16
2023-09-02T16:54:10.917Z,20.03
2023-09-02T16:58:19.010Z,19.71
2023-09-02T17:02:26.134Z,19.76
2023-09-02T17:06:30.516Z,19.14
2023-09-02T17:10:32.999Z,19.00
2023-09-02T17:14:35.167Z,19.07
2023-09-02T17:18:37.768Z,18.94
2023-09-02T17:22:40.393Z,18.73
2023-09-02T17:26:42.217Z,18.45
2023-09-02T17:30:44.592Z,18.13
2023-09-02T17:34:46.345Z,18.31
2023-09-02T17:38:48.440Z,18.22
2023-09-02T17:42:51.139Z,17.59
2023-09-02T17:46:53.043Z,17.82
2023-09-02T17:50:55.572Z,17.82
2023-09-02T17:54:57.362Z,17.61
2023-09-02T17:58:59.468Z,17.49
2023-09-02T18:03:02.448Z,17.50
2023-09-02T18:07:05.080Z,17.04
2023-09-02T18:11:07.153Z,16.77
2023-09-02T18:15:10.587Z,16.81
2023-09-02T18:19:12.707Z,16.64
2023-09-02T18:23:14.859Z,16.99
2023-09-02T18:27:17.722Z,16.46
2023-09-02T18:31:21.129Z,16.42
2023-09-02T18:35:23.567Z,16.63
2023-09-02T18:39:27.098Z,16.36
2023-09-02T18:43:29.181Z,16.18
2023-09-02T18:47:31.215Z,16.08
2023-09-02T18:51:33.834Z,16.12
2023-09-02T18:55:37.351Z,16.04
2023-09-02T18:59:39.534Z,15.82
2023-09-02T19:03:41.685Z,15.73
2023-09-02T19:07:43.502Z,15.78
2023-09-02T19:11:45.982Z,15.48
2023-09-02T19:15:48.025Z,15.74
2023-09-02T19:19:49.975Z,15.90
2023-09-02T19:23:53.708Z,15.76
2023-09-02T19:27:56.899Z,15.77
2023-09-02T19:32:03.176Z,15.61
2023-09-02T19:36:05.307Z,15.54
2023-09-02T19:40:07.931Z,15.60
2023-09-02T19:44:09.683Z,15.58
2023-09-02T19:48:11.835Z,15.68
2023-09-02T19:52:13.823Z,15.22
2023-09-02T19:56:15.927Z,15.62
2023-09-02T20:00:19.046Z,15.75
2023-09-02T20:04:21.275Z,15.06
2023-09-02T20:08:23.190Z,14.80
2023-09-02T20:12:25.469Z,14.75
2023-09-02T20:16:27.563Z,15.15
2023-09-02T20:20:29.506Z,15.11
2023-09-02T20:24:32.850Z,15.18
2023-09-02T20:28:34.856Z,14.89
2023-09-02T20:32:36.941Z,14.50
2023-09-02T20:36:39.563Z,14.42
2023-09-02T20:40:41.579Z,14.46
2023-09-02T20:44:43.679Z,15.05
2023-09-02T20:48:45.855Z,14.59
2023-09-02T20:52:48.152Z,14.37
2023-09-02T20:56:50.221Z,14.35
2023-09-02T21:00:52.395Z,14.05
2023-09-02T21:04:54.492Z,14.23
2023-09-02T21:08:56.718Z,14.50
2023-09-02T21:12:58.828Z,14.37
2023-09-02T21:17:00.682Z,14.21
2023-09-02T21:21:02.784Z,14.17
2023-09-02T21:25:09.342Z,14.14
2023-09-02T21:29:11.373Z,13.97
2023-09-02T21:33:13.397Z,13.99
2023-09-02T21:37:15.162Z,13.89
2023-09-02T21:41:17.237Z,14.02
2023-09-02T21:45:18.921Z,13.87
2023-09-02T21:49:21.059Z,14.38
2023-09-02T21:53:23.144Z,14.12
2023-09-02T21:57:25.047Z,14.00
2023-09-02T22:01:27.094Z,14.07
2023-09-02T22:05:29.169Z,13.97
2023-09-02T22:09:31.044Z,13.92
2023-09-02T22:13:33.643Z,13.70
2023-09-02T22:17:35.424Z,14.51
2023-09-02T22:21:39.412Z,14.15
2023-09-02T22:25:41.902Z,14.03
2023-09-02T22:29:43.721Z,13.98
2023-09-02T22:33:45.903Z,13.72
2023-09-02T22:37:47.902Z,13.67
2023-09-02T22:41:51.163Z,13.75
2023-09-02T22:45:53.312Z,13.65
2023-09-02T22:49:55.959Z,13.59
2023-09-02T22:53:58.037Z,13.63
2023-09-02T22:58:05.031Z,13.66
2023-09-02T23:02:08.277Z,13.44
2023-09-02T23:06:11.267Z,13.22
2023-09-02T23:10:13.631Z,13.75
2023-09-02T23:14:15.710Z,13.18
2023-09-02T23:18:17.858Z,13.20
2023-09-02T23:22:20.000Z,13.19
2023-09-02T23:26:22.083Z,13.13
2023-09-02T23:30:24.093Z,13.17
2023-09-02T23:34:26.389Z,13.25
2023-09-02T23:38:28.434Z,13.37
2023-09-02T23:42:30.183Z,13.04
2023-09-02T23:46:32.778Z,12.91
2023-09-02T23:50:34.929Z,12.93
2023-09-02T23:54:37.345Z,13.02
2023-09-02T23:58:39.590Z,12.83
